Time;durP1;ratioP1;P1;durP2;ratioP2;P2;SDS_P1;SDS_P2;PMS_P1;PMS_P2;Temp;Humidity;BMP_temperature;BMP_pressure;BME280_temperature;BME280_humidity;BME280_pressure;Samples;Min_cycle;Max_cycle;Signal;HPM_P1;HPM_P2
2022/05/07 00:01:42;;;;;;;;;45.67;40.00;;;;;13.82;97.37;100050.88;6276939;20;2864928;-53
2022/05/07 00:04:11;;;;;;;;;48.67;38.33;;;;;13.79;96.90;100054.66;6315804;20;3592940;-54
2022/05/07 00:06:41;;;;;;;;;43.67;35.00;;;;;14.01;95.75;100047.78;6285160;20;3617048;-54
2022/05/07 00:09:09;;;;;;;;;47.67;39.67;;;;;13.98;95.24;100053.38;6318617;20;3603349;-55
2022/05/07 00:11:38;;;;;;;;;49.00;40.00;;;;;14.16;95.03;100051.22;6285561;20;2847158;-52
2022/05/07 00:14:07;;;;;;;;;45.00;38.00;;;;;14.07;96.00;100052.75;6285334;20;2843457;-55
2022/05/07 00:19:24;;;;;;;;;48.67;39.00;;;;;13.92;96.03;100048.41;6282645;20;2861831;-55
2022/05/07 00:21:53;;;;;;;;;43.00;35.00;;;;;13.95;95.65;100049.03;6318122;20;3591999;-54
2022/05/07 00:24:23;;;;;;;;;48.00;40.00;;;;;13.86;96.04;100046.16;6285669;20;2856587;-55
2022/05/07 00:26:51;;;;;;;;;43.00;35.00;;;;;13.92;95.69;100043.88;6318573;20;3602394;-57
2022/05/07 00:29:21;;;;;;;;;50.67;41.67;;;;;13.69;97.09;100040.09;6284998;20;3599278;-57
2022/05/07 00:31:50;;;;;;;;;47.00;38.00;;;;;13.52;98.05;100037.66;6318159;20;3580422;-56
2022/05/07 00:34:21;;;;;;;;;42.67;36.67;;;;;13.77;96.40;100043.13;6287567;20;3585637;-53
2022/05/07 00:36:50;;;;;;;;;46.00;38.67;;;;;13.62;97.46;100033.38;6283952;20;2850279;-54
2022/05/07 00:39:19;;;;;;;;;48.00;39.33;;;;;13.62;97.67;100033.38;6317240;20;3606461;-54
2022/05/07 00:41:48;;;;;;;;;46.67;37.67;;;;;13.41;98.53;100038.41;6281203;20;2857632;-58
2022/05/07 00:44:17;;;;;;;;;46.33;38.67;;;;;13.41;98.76;100035.69;6315191;20;3601260;-58
2022/05/07 00:46:48;;;;;;;;;43.33;37.33;;;;;13.41;99.10;100029.44;6286281;20;3610652;-54
2022/05/07 00:49:18;;;;;;;;;48.00;39.00;;;;;13.49;99.05;100022.56;6280248;20;2841927;-55
2022/05/07 00:51:48;;;;;;;;;41.67;36.67;;;;;13.53;98.80;100034.00;6282278;20;2856668;-54
2022/05/07 00:54:17;;;;;;;;;45.00;38.00;;;;;13.66;98.03;100024.06;6316425;20;2846202;-55
2022/05/07 00:56:47;;;;;;;;;41.67;37.00;;;;;13.93;96.13;100025.81;6281726;20;2856579;-55
2022/05/07 00:59:15;;;;;;;;;43.33;38.00;;;;;13.78;95.88;100027.78;6320383;20;3572158;-55
2022/05/07 01:01:45;;;;;;;;;47.00;40.00;;;;;13.51;98.64;100022.47;6279453;20;2859911;-55
2022/05/07 01:04:13;;;;;;;;;44.50;39.00;;;;;13.72;97.82;100025.53;6312246;20;2840922;-57
2022/05/07 01:06:42;;;;;;;;;39.33;35.00;;;;;13.59;98.10;100020.97;6286662;20;3605489;-55
2022/05/07 01:09:12;;;;;;;;;43.00;37.50;;;;;13.58;98.12;100016.50;6277939;20;2854524;-56
2022/05/07 01:11:41;;;;;;;;;47.00;39.00;;;;;13.81;97.67;100017.63;6284571;20;2840907;-56
2022/05/07 01:14:10;;;;;;;;;46.33;38.00;;;;;13.99;94.91;100020.03;6280814;20;2861692;-54
2022/05/07 01:16:39;;;;;;;;;43.33;37.67;;;;;14.09;94.51;100012.16;6313853;20;3584670;-55
2022/05/07 01:19:08;;;;;;;;;46.00;39.50;;;;;13.86;95.32;100019.16;6281591;20;2845067;-53
2022/05/07 01:21:37;;;;;;;;;43.33;36.67;;;;;13.75;96.77;100023.47;6284408;20;2862810;-54
2022/05/07 01:24:07;;;;;;;;;44.00;38.00;;;;;13.85;96.41;100018.28;6313730;20;2835647;-55
2022/05/07 01:26:36;;;;;;;;;33.67;31.33;;;;;13.91;97.17;100017.00;6287162;20;3589764;-57
2022/05/07 01:29:04;;;;;;;;;48.67;39.00;;;;;13.97;95.90;100019.25;6282849;20;3599198;-56
2022/05/07 01:31:34;;;;;;;;;46.00;38.00;;;;;13.73;97.58;100014.59;6283327;20;2849460;-54
2022/05/07 01:34:04;;;;;;;;;39.67;34.33;;;;;13.85;97.16;100015.59;6283888;20;2849252;-56
2022/05/07 01:36:32;;;;;;;;;42.00;38.00;;;;;13.54;99.02;100014.16;6316578;20;3579482;-55
2022/05/07 01:39:02;;;;;;;;;45.00;36.00;;;;;13.60;99.70;100017.28;6280919;20;2864060;-54
2022/05/07 01:41:32;;;;;;;;;49.00;40.67;;;;;13.66;98.55;100012.44;6311710;20;2859745;-57
2022/05/07 01:44:00;;;;;;;;;43.00;37.00;;;;;13.44;99.89;100015.75;6318222;20;3598130;-56
2022/05/07 01:49:17;;;;;;;;;48.00;38.00;;;;;13.50;99.84;100009.94;6280054;20;3612157;-56
2022/05/07 01:51:46;;;;;;;;;51.67;41.33;;;;;13.55;98.09;100007.78;6318109;20;3597101;-53
2022/05/07 01:54:15;;;;;;;;;46.33;37.00;;;;;13.25;99.75;100008.88;6283366;20;2847126;-56
2022/05/07 01:56:44;;;;;;;;;39.67;36.00;;;;;13.34;99.52;99997.47;6312093;20;3610669;-53
2022/05/07 01:59:13;;;;;;;;;44.67;37.33;;;;;13.21;99.99;100007.34;6317982;20;3604426;-55
2022/05/07 02:01:42;;;;;;;;;45.00;36.00;;;;;13.41;99.41;100005.19;6285211;20;3609690;-56
2022/05/07 02:04:11;;;;;;;;;38.00;34.00;;;;;13.46;98.84;100005.72;6283700;20;3607684;-56
2022/05/07 02:06:40;;;;;;;;;35.00;32.67;;;;;13.70;97.54;100005.88;6282488;20;2860877;-52
2022/05/07 02:09:10;;;;;;;;;43.67;35.00;;;;;13.29;99.61;100010.41;6313022;20;3586676;-55
2022/05/07 02:11:39;;;;;;;;;44.00;35.67;;;;;13.28;100.00;100008.69;6282328;20;2864834;-55
2022/05/07 02:14:08;;;;;;;;;41.67;36.00;;;;;13.41;99.69;100006.03;6311891;20;3579425;-54
2022/05/07 02:16:37;;;;;;;;;39.67;34.00;;;;;13.26;100.00;100007.03;6281322;20;2864966;-55
2022/05/07 02:19:06;;;;;;;;;39.33;35.00;;;;;13.22;99.97;100006.38;6311287;20;3600257;-53
2022/05/07 02:21:35;;;;;;;;;43.67;38.67;;;;;13.10;100.00;99999.97;6285498;20;3575290;-58
2022/05/07 02:24:04;;;;;;;;;48.00;38.00;;;;;13.32;99.75;99999.44;6311132;20;3603389;-58
2022/05/07 02:26:33;;;;;;;;;43.33;37.33;;;;;13.12;100.00;100002.56;6284581;20;3581520;-54
2022/05/07 02:29:01;;;;;;;;;42.50;38.50;;;;;13.21;100.00;100006.47;6279323;20;2850279;-57
2022/05/07 02:31:30;;;;;;;;;39.00;34.00;;;;;13.41;100.00;100002.47;6283658;20;3612761;-57
2022/05/07 02:33:59;;;;;;;;;48.00;39.00;;;;;13.26;100.00;100013.31;6278701;20;2848156;-56
2022/05/07 02:36:29;;;;;;;;;45.00;37.00;;;;;13.29;100.00;100015.81;6280124;20;2862766;-58
2022/05/07 02:38:59;;;;;;;;;38.67;33.67;;;;;13.35;100.00;100007.31;6312267;20;3609672;-57
2022/05/07 02:44:16;;;;;;;;;40.00;35.67;;;;;13.71;99.15;100016.53;6313164;20;3600244;-58
2022/05/07 02:46:44;;;;;;;;;44.00;37.00;;;;;13.53;99.19;100017.81;6277840;20;2851407;-58
2022/05/07 02:49:13;;;;;;;;;44.67;38.00;;;;;13.55;99.73;100016.72;6283354;20;3611811;-58
2022/05/07 02:51:42;;;;;;;;;47.00;38.00;;;;;13.61;99.15;100010.03;6282319;20;3612762;-58
2022/05/07 02:54:11;;;;;;;;;47.00;40.00;;;;;13.37;100.00;100012.59;6282253;20;2861728;-57
2022/05/07 02:56:40;;;;;;;;;46.00;39.33;;;;;13.54;99.72;100012.31;6279772;20;2854412;-58
2022/05/07 02:59:09;;;;;;;;;40.00;33.67;;;;;13.66;99.58;100021.38;6314293;20;3598139;-58
2022/05/07 03:01:37;;;;;;;;;40.00;35.00;;;;;13.46;98.25;100013.81;6278078;20;2848151;-58
2022/05/07 03:04:08;;;;;;;;;44.00;37.00;;;;;13.34;99.28;100023.59;6281911;20;3602327;-58
2022/05/07 03:06:37;;;;;;;;;48.00;37.67;;;;;13.09;100.00;100016.28;6312479;20;3625764;-58
2022/05/07 03:09:07;;;;;;;;;39.00;34.00;;;;;13.40;99.09;100009.69;6280049;20;3606538;-49
2022/05/07 03:11:37;;;;;;;;;47.00;34.00;;;;;13.22;97.92;100019.88;6280882;20;3629416;-53
2022/05/07 03:14:06;;;;;;;;;39.00;32.00;;;;;12.90;100.00;100014.78;6312342;20;3602338;-48
2022/05/07 03:16:35;;;;;;;;;40.00;35.67;;;;;12.79;100.00;100011.91;6282580;20;3587785;-54
2022/05/07 03:19:07;;;;;;;;;39.67;35.00;;;;;12.84;100.00;100019.72;6276898;20;3617974;-53
2022/05/07 03:21:36;;;;;;;;;42.33;35.67;;;;;13.21;100.00;100011.88;6315987;20;3603375;-52
2022/05/07 03:24:05;;;;;;;;;38.33;34.67;;;;;12.95;100.00;100017.16;6281014;20;3584649;-53
2022/05/07 03:26:34;;;;;;;;;42.67;36.00;;;;;13.14;100.00;100019.53;6314461;20;3597894;-53
2022/05/07 03:29:03;;;;;;;;;38.00;35.00;;;;;12.96;100.00;100017.06;6281071;20;3579437;-52
2022/05/07 03:31:32;;;;;;;;;38.00;34.67;;;;;13.07;100.00;100016.34;6282229;20;3596085;-52
2022/05/07 03:34:01;;;;;;;;;41.67;35.33;;;;;12.91;100.00;100021.91;6280851;20;3604405;-54
2022/05/07 03:36:29;;;;;;;;;45.00;37.50;;;;;12.83;100.00;100013.47;6281460;20;2840878;-52
2022/05/07 03:38:58;;;;;;;;;44.00;36.33;;;;;12.81;100.00;100018.09;6283677;20;3606518;-52
2022/05/07 03:41:27;;;;;;;;;44.67;36.33;;;;;12.72;100.00;100026.78;6288356;20;3607618;-53
2022/05/07 03:43:56;;;;;;;;;37.67;33.67;;;;;12.87;100.00;100025.75;6286092;20;3601349;-53
2022/05/07 03:46:25;;;;;;;;;37.67;34.00;;;;;12.88;100.00;100015.88;6281105;20;2866556;-53
2022/05/07 03:48:54;;;;;;;;;41.00;34.33;;;;;12.93;100.00;100021.81;6321410;20;3603420;-52
2022/05/07 03:51:24;;;;;;;;;42.33;36.67;;;;;12.89;100.00;100029.22;6283586;20;2860791;-53
2022/05/07 03:53:52;;;;;;;;;43.00;38.33;;;;;13.09;100.00;100024.34;6319526;20;3592976;-52
2022/05/07 03:56:21;;;;;;;;;33.00;32.00;;;;;13.20;100.00;100035.28;6284546;20;2833735;-53
2022/05/07 03:58:50;;;;;;;;;38.00;35.00;;;;;12.99;100.00;100024.09;6284494;20;2873301;-54
2022/05/07 04:01:19;;;;;;;;;45.00;37.33;;;;;13.01;100.00;100032.94;6314971;20;3569151;-54
2022/05/07 04:03:48;;;;;;;;;36.67;34.33;;;;;13.16;100.00;100029.25;6318943;20;3596087;-54
2022/05/07 04:06:17;;;;;;;;;46.00;37.50;;;;;13.28;100.00;100032.97;6282673;20;2843984;-52
2022/05/07 04:08:46;;;;;;;;;40.67;36.00;;;;;13.05;100.00;100033.59;6285575;20;2869082;-53
2022/05/07 04:11:15;;;;;;;;;38.67;35.00;;;;;13.05;100.00;100039.00;6315597;20;3612752;-53
2022/05/07 04:13:44;;;;;;;;;39.33;35.33;;;;;13.01;100.00;100042.88;6285326;20;2852494;-50
2022/05/07 04:16:13;;;;;;;;;40.33;35.00;;;;;13.10;100.00;100037.72;6318028;20;3601429;-51
2022/05/07 04:18:42;;;;;;;;;41.67;34.00;;;;;13.07;100.00;100037.06;6287100;20;3606488;-55
2022/05/07 04:21:11;;;;;;;;;37.33;34.00;;;;;13.23;100.00;100035.06;6286073;20;3611137;-52
2022/05/07 04:23:40;;;;;;;;;37.67;34.00;;;;;13.55;99.55;100038.31;6280127;20;3607593;-54
2022/05/07 04:26:10;;;;;;;;;38.67;34.00;;;;;13.83;97.42;100047.22;6317166;20;3610170;-54
2022/05/07 04:28:40;;;;;;;;;41.33;34.33;;;;;14.04;95.17;100050.25;6283164;20;2866112;-54
2022/05/07 04:31:08;;;;;;;;;37.00;34.00;;;;;14.03;95.17;100044.00;6316782;20;3598142;-53
2022/05/07 04:33:37;;;;;;;;;39.00;32.00;;;;;14.05;94.83;100046.56;6287010;20;3607523;-53
2022/05/07 04:36:06;;;;;;;;;39.33;35.00;;;;;13.79;96.17;100043.84;6285632;20;3607712;-55
2022/05/07 04:38:35;;;;;;;;;36.33;33.00;;;;;13.88;95.71;100046.91;6285524;20;3606526;-51
2022/05/07 04:41:04;;;;;;;;;39.00;33.67;;;;;13.91;95.53;100044.00;6286630;20;3616930;-54
2022/05/07 04:43:33;;;;;;;;;36.67;32.67;;;;;13.95;95.52;100053.59;6281723;20;3601391;-55
2022/05/07 04:46:02;;;;;;;;;35.67;32.33;;;;;14.00;96.44;100056.84;6287391;20;3599371;-52
2022/05/07 04:48:32;;;;;;;;;45.33;37.00;;;;;13.98;97.10;100056.06;6280707;20;2867012;-52
2022/05/07 04:51:01;;;;;;;;;33.67;31.33;;;;;14.18;95.65;100063.63;6315451;20;3587749;-52
2022/05/07 04:53:50;;;;;;;;;33.00;30.67;;;;;14.35;94.87;100057.06;6288885;20;3584627;-57
2022/05/07 04:56:22;;;;;;;;;39.50;34.00;;;;;14.41;95.83;100055.75;6281125;20;2852372;-57
2022/05/07 04:58:52;;;;;;;;;38.00;35.33;;;;;14.53;95.29;100063.00;6287529;20;3593986;-55
2022/05/07 05:01:20;;;;;;;;;37.00;32.00;;;;;14.54;95.07;100059.34;6284734;20;3610708;-57
2022/05/07 05:03:49;;;;;;;;;37.67;33.00;;;;;14.58;95.15;100059.97;6285249;20;3601334;-56
2022/05/07 05:06:18;;;;;;;;;40.67;36.67;;;;;15.12;89.63;100060.47;6284386;20;3597081;-57
2022/05/07 05:08:47;;;;;;;;;36.33;33.00;;;;;15.12;90.00;100060.47;6319190;20;3594085;-55
2022/05/07 05:11:16;;;;;;;;;44.00;36.00;;;;;15.19;90.27;100060.84;6282037;20;2846233;-57
2022/05/07 05:13:44;;;;;;;;;40.33;36.00;;;;;15.23;89.54;100061.50;6287474;20;3617958;-58
2022/05/07 05:16:14;;;;;;;;;37.67;32.67;;;;;15.45;89.14;100072.41;6283049;20;2858776;-58
2022/05/07 05:18:44;;;;;;;;;29.67;27.67;;;;;15.54;89.14;100066.31;6315611;20;3584591;-57
2022/05/07 05:21:12;;;;;;;;;36.33;30.67;;;;;15.46;89.30;100068.75;6286609;20;3603434;-58
2022/05/07 05:23:41;;;;;;;;;36.00;29.67;;;;;15.68;87.72;100069.81;6281150;20;3591888;-58
2022/05/07 05:26:10;;;;;;;;;36.00;31.00;;;;;15.92;87.27;100070.66;6285890;20;3582513;-56
2022/05/07 05:28:39;;;;;;;;;34.67;31.00;;;;;15.91;87.83;100071.66;6284231;20;3579524;-58
2022/05/07 05:31:09;;;;;;;;;33.67;30.67;;;;;15.99;86.53;100080.03;6282728;20;3604909;-57
2022/05/07 05:33:38;;;;;;;;;32.00;30.67;;;;;16.49;84.50;100078.88;6285576;20;3579403;-57
2022/05/07 05:36:06;;;;;;;;;33.67;29.33;;;;;16.36;84.99;100084.41;6280673;20;3585792;-58
2022/05/07 05:38:35;;;;;;;;;28.67;26.33;;;;;16.32;84.84;100078.34;6283612;20;3581505;-58
2022/05/07 05:41:04;;;;;;;;;29.67;28.67;;;;;16.62;83.28;100076.91;6285398;20;3583584;-58
2022/05/07 05:43:32;;;;;;;;;28.00;27.00;;;;;16.58;83.87;100080.84;6285611;20;3602330;-58
2022/05/07 05:46:01;;;;;;;;;26.67;26.67;;;;;16.56;83.26;100080.97;6285912;20;3600319;-51
2022/05/07 05:48:30;;;;;;;;;27.00;27.00;;;;;16.67;82.59;100082.84;6285691;20;3581501;-51
2022/05/07 05:50:59;;;;;;;;;28.33;28.00;;;;;16.74;82.55;100084.03;6279526;20;3597127;-50
2022/05/07 05:53:28;;;;;;;;;26.00;26.00;;;;;16.77;82.94;100086.56;6286990;20;3592961;-52
2022/05/07 05:55:58;;;;;;;;;31.00;26.67;;;;;16.59;84.46;100080.72;6282276;20;3591953;-52
2022/05/07 05:58:33;;;;;;;;;26.67;26.67;;;;;16.72;82.98;100086.03;6286802;20;3584626;-51
2022/05/07 06:01:03;;;;;;;;;32.67;30.00;;;;;16.71;83.24;100084.28;6284737;20;3568107;-53
2022/05/07 06:03:33;;;;;;;;;28.00;27.00;;;;;16.64;82.49;100088.47;6312074;20;3596140;-53
2022/05/07 06:06:03;;;;;;;;;30.67;27.67;;;;;17.11;81.19;100081.06;6285334;20;3577298;-54
2022/05/07 06:08:31;;;;;;;;;27.00;26.33;;;;;16.96;81.02;100093.19;6281581;20;3596075;-54
2022/05/07 06:11:00;;;;;;;;;30.00;29.00;;;;;17.16;80.26;100095.13;6281370;20;3602439;-52
2022/05/07 06:13:33;;;;;;;;;40.00;33.00;;;;;17.38;80.31;100093.31;6285339;20;3597248;-54
2022/05/07 06:16:02;;;;;;;;;33.33;31.33;;;;;17.23;80.81;100101.75;6283386;20;2861791;-54
2022/05/07 06:18:31;;;;;;;;;33.00;31.00;;;;;17.50;79.27;100101.31;6315013;20;3589223;-52
2022/05/07 06:21:03;;;;;;;;;110.50;102.00;;;;;17.57;79.45;100093.53;6281123;20;3707502;-50
2022/05/07 06:23:32;;;;;;;;;31.00;28.33;;;;;17.75;78.61;100097.41;6281356;20;3584636;-54
2022/05/07 06:28:49;;;;;;;;;35.67;32.67;;;;;17.67;77.32;100099.91;6285967;20;3610800;-54
2022/05/07 06:31:18;;;;;;;;;62.75;50.75;;;;;17.62;77.94;100102.16;6283824;20;3626299;-50
2022/05/07 06:33:47;;;;;;;;;27.67;27.67;;;;;17.60;77.88;100093.25;6308612;20;3595096;-54
2022/05/07 06:36:16;;;;;;;;;39.33;33.33;;;;;17.65;77.88;100101.03;6285051;20;3595183;-53
2022/05/07 06:38:45;;;;;;;;;40.33;33.33;;;;;17.85;77.73;100102.06;6283915;20;3592366;-52
2022/05/07 06:41:14;;;;;;;;;28.33;24.00;;;;;17.39;77.91;100092.34;6282864;20;3598177;-52
2022/05/07 06:43:42;;;;;;;;;35.00;31.33;;;;;17.48;79.22;100099.72;6282091;20;3576283;-55
2022/05/07 06:46:11;;;;;;;;;35.33;31.33;;;;;17.84;78.45;100100.34;6283113;20;3591978;-54
2022/05/07 06:48:41;;;;;;;;;29.33;28.00;;;;;17.67;78.04;100097.19;6282617;20;3578491;-51
2022/05/07 06:51:10;;;;;;;;;35.67;31.00;;;;;17.61;78.59;100100.41;6280812;20;3602323;-50
2022/05/07 06:53:39;;;;;;;;;62.00;48.50;;;;;17.94;76.87;100102.16;6281847;20;3513749;-51
2022/05/07 06:56:08;;;;;;;;;33.33;31.33;;;;;17.70;76.18;100099.63;6311215;20;3602310;-52
2022/05/07 06:58:37;;;;;;;;;45.33;36.33;;;;;18.01;77.59;100097.06;6287995;20;3596106;-56
2022/05/07 07:01:06;;;;;;;;;35.67;32.67;;;;;18.24;76.23;100103.19;6281111;20;3604513;-54
2022/05/07 07:03:36;;;;;;;;;33.00;31.33;;;;;18.58;75.23;100103.81;6315677;20;3589835;-54
2022/05/07 07:06:06;;;;;;;;;34.00;30.00;;;;;18.64;74.25;100100.59;6281935;20;3587834;-51
2022/05/07 07:08:34;;;;;;;;;32.00;31.33;;;;;18.95;73.99;100103.28;6285852;20;3586746;-53
2022/05/07 07:11:03;;;;;;;;;34.00;31.33;;;;;19.02;72.36;100106.34;6283898;20;3585656;-51
2022/05/07 07:13:32;;;;;;;;;28.00;28.00;;;;;18.95;72.91;100108.75;6283343;20;3599250;-55
2022/05/07 07:16:01;;;;;;;;;25.00;25.00;;;;;18.81;72.95;100104.53;6287205;20;3592940;-50
2022/05/07 07:18:31;;;;;;;;;37.00;32.00;;;;;19.12;72.23;100112.69;6289153;20;3586723;-52
2022/05/07 07:21:00;;;;;;;;;29.67;27.67;;;;;19.00;72.85;100111.06;6289481;20;3578469;-53
2022/05/07 07:23:28;;;;;;;;;32.67;31.67;;;;;19.14;72.46;100117.97;6285165;20;3584635;-59
2022/05/07 07:25:57;;;;;;;;;31.33;31.33;;;;;19.32;71.59;100118.16;6287320;20;3592057;-59
2022/05/07 07:28:26;;;;;;;;;23.00;23.00;;;;;18.48;73.80;100108.34;6288468;20;3584721;-57
2022/05/07 07:30:54;;;;;;;;;30.67;29.00;;;;;18.48;74.18;100116.50;6287282;20;3614822;-58
2022/05/07 07:33:23;;;;;;;;;27.33;27.33;;;;;18.77;73.82;100110.38;6287843;20;3592005;-56
2022/05/07 07:35:52;;;;;;;;;26.00;26.00;;;;;19.28;72.87;100114.88;6286904;20;3590209;-57
2022/05/07 07:38:26;;;;;;;;;36.67;32.00;;;;;19.42;72.00;100110.88;6291753;20;3600355;-58
2022/05/07 07:40:56;;;;;;;;;25.33;24.33;;;;;19.25;73.10;100121.44;6288256;20;2848333;-58
2022/05/07 07:43:25;;;;;;;;;27.33;25.33;;;;;19.15;72.00;100108.81;6323259;20;3597162;-58
2022/05/07 07:48:41;;;;;;;;;30.67;28.67;;;;;19.38;71.77;100110.31;6292815;20;3591136;-59
2022/05/07 07:51:10;;;;;;;;;30.00;28.00;;;;;19.62;72.48;100111.78;6287234;20;3594219;-59
2022/05/07 07:53:40;;;;;;;;;21.67;21.67;;;;;19.40;70.79;100107.41;6285117;20;2847185;-58
2022/05/07 07:56:09;;;;;;;;;19.33;19.00;;;;;19.11;72.38;100108.22;6320762;20;3561760;-59
2022/05/07 07:58:38;;;;;;;;;28.00;27.00;;;;;19.76;71.26;100099.59;6289222;20;3623430;-59
2022/05/07 08:01:06;;;;;;;;;26.67;24.67;;;;;19.72;70.55;100107.19;6291845;20;3583593;-60
2022/05/07 08:03:36;;;;;;;;;31.75;28.25;;;;;19.37;71.35;100102.25;6290021;20;3621307;-59
2022/05/07 08:06:05;;;;;;;;;22.67;21.33;;;;;19.70;69.77;100111.94;6322097;20;3579511;-59
2022/05/07 08:14:13;;;;;;;;;27.00;25.67;;;;;20.98;65.61;100111.53;6291163;20;3596189;-53
2022/05/07 08:16:45;;;;;;;;;26.33;23.00;;;;;21.29;65.50;100123.03;6289290;20;3594007;-56
2022/05/07 08:19:14;;;;;;;;;24.67;24.67;;;;;20.60;68.09;100113.44;6287448;20;3584732;-54
2022/05/07 08:21:43;;;;;;;;;18.67;17.67;;;;;20.50;67.71;100115.28;6289083;20;2835708;-53
2022/05/07 08:24:12;;;;;;;;;23.33;23.33;;;;;20.70;68.66;100113.41;6319647;20;3581466;-55
2022/05/07 08:26:41;;;;;;;;;19.67;16.67;;;;;20.75;68.12;100106.47;6289997;20;3564846;-52
2022/05/07 08:29:10;;;;;;;;;18.00;18.00;;;;;20.28;68.17;100119.22;6289193;20;3571700;-55
2022/05/07 08:31:38;;;;;;;;;27.67;27.00;;;;;21.12;65.97;100119.25;6291459;20;3593002;-53
2022/05/07 08:34:07;;;;;;;;;23.67;22.33;;;;;20.60;68.48;100116.16;6291222;20;3572191;-54
2022/05/07 08:36:37;;;;;;;;;24.00;23.67;;;;;20.67;67.59;100124.59;6288440;20;3588973;-59
2022/05/07 08:39:05;;;;;;;;;25.00;21.00;;;;;20.93;66.90;100120.22;6320337;20;3575277;-59
2022/05/07 08:41:35;;;;;;;;;24.33;20.33;;;;;20.41;67.73;100114.31;6289643;20;3585676;-59
2022/05/07 08:44:04;;;;;;;;;19.00;19.00;;;;;20.07;68.03;100122.13;6289037;20;3575302;-58
2022/05/07 08:46:33;;;;;;;;;27.67;25.00;;;;;20.65;67.93;100129.38;6288298;20;3588801;-54
2022/05/07 08:49:02;;;;;;;;;24.00;21.00;;;;;20.31;67.62;100127.97;6287812;20;3580866;-53
2022/05/07 08:51:31;;;;;;;;;24.67;23.00;;;;;20.54;68.34;100124.94;6289415;20;3579401;-51
2022/05/07 08:54:00;;;;;;;;;28.67;27.67;;;;;21.39;66.95;100129.31;6287755;20;3601265;-53
2022/05/07 08:56:28;;;;;;;;;23.67;22.33;;;;;20.68;67.63;100121.72;6287994;20;3581676;-51
2022/05/07 08:58:58;;;;;;;;;29.00;24.00;;;;;20.99;68.09;100124.19;6288317;20;2822345;-52
2022/05/07 09:01:26;;;;;;;;;28.33;28.00;;;;;22.24;64.53;100131.69;6323254;20;3606504;-51
2022/05/07 09:03:55;;;;;;;;;29.00;26.67;;;;;21.12;66.45;100119.25;6287888;20;3597243;-53
2022/05/07 09:06:26;;;;;;;;;27.67;26.33;;;;;21.15;65.93;100118.94;6290233;20;3580426;-59
2022/05/07 09:08:57;;;;;;;;;27.50;24.25;;;;;21.24;65.79;100122.63;6288306;20;3598843;-56
2022/05/07 09:11:26;;;;;;;;;19.33;18.33;;;;;21.38;65.27;100121.25;6322452;20;3561713;-56
2022/05/07 09:14:06;;;;;;;;;17.67;17.67;;;;;20.66;66.98;100129.19;6287505;20;3573157;-55
2022/05/07 09:16:45;;;;;;;;;25.00;23.33;;;;;21.07;66.61;100129.75;6288281;20;3582680;-55
2022/05/07 09:19:30;;;;;;;;;24.67;24.67;;;;;21.80;65.32;100128.88;6290275;20;3595102;-53
2022/05/07 09:22:11;;;;;;;;;27.00;26.00;;;;;21.94;64.26;100132.97;6290156;20;3589822;-52
2022/05/07 09:24:40;;;;;;;;;23.67;22.33;;;;;21.62;65.91;100120.69;6288720;20;3565984;-54
2022/05/07 09:27:17;;;;;;;;;34.25;28.50;;;;;21.55;64.45;100123.19;6288552;20;3609745;-53
2022/05/07 09:29:48;;;;;;;;;26.00;25.00;;;;;21.18;66.36;100125.97;6319321;20;3596083;-55
2022/05/07 09:32:17;;;;;;;;;21.50;21.50;;;;;21.07;64.90;100123.44;6315148;20;2836807;-55
2022/05/07 09:37:39;;;;;;;;;25.33;25.33;;;;;22.08;63.60;100122.31;6287048;20;3594063;-51
2022/05/07 09:40:12;;;;;;;;;29.67;28.67;;;;;21.61;65.08;100118.97;6287103;20;3600655;-54
2022/05/07 09:42:42;;;;;;;;;22.00;22.00;;;;;21.47;65.05;100117.63;6287540;20;3587873;-52
2022/05/07 09:45:12;;;;;;;;;21.33;21.33;;;;;21.07;65.57;100116.09;6289039;20;3581512;-57
2022/05/07 09:47:41;;;;;;;;;28.67;26.33;;;;;21.27;65.75;100112.25;6286921;20;3595009;-57
2022/05/07 09:50:20;;;;;;;;;26.33;24.67;;;;;20.90;66.46;100109.56;6284937;20;3603358;-57
2022/05/07 09:58:24;;;;;;;;;25.33;23.00;;;;;21.43;65.54;100110.75;6283231;20;3587867;-51
2022/05/07 10:01:33;;;;;;;;;30.00;25.67;;;;;21.58;64.67;100103.72;6288333;20;3591887;-56
2022/05/07 10:04:20;;;;;;;;;27.33;27.33;;;;;21.64;65.35;100094.94;6287663;20;3602344;-56
2022/05/07 10:06:56;;;;;;;;;24.67;24.33;;;;;21.73;65.07;100095.00;6288357;20;3594015;-52
2022/05/07 10:09:46;;;;;;;;;24.00;21.67;;;;;21.92;63.00;100094.81;6289204;20;3576290;-52
2022/05/07 10:12:22;;;;;;;;;24.00;23.00;;;;;21.82;62.91;100094.06;6286466;20;3573233;-52
2022/05/07 10:14:50;;;;;;;;;22.00;21.00;;;;;21.78;63.48;100092.66;6284537;20;3584605;-55
2022/05/07 10:17:21;;;;;;;;;25.33;24.00;;;;;22.72;61.01;100083.78;6281598;20;3583679;-56
2022/05/07 10:20:07;;;;;;;;;21.67;19.67;;;;;23.49;58.53;100092.84;6281101;20;3567956;-50
2022/05/07 10:22:36;;;;;;;;;22.00;22.00;;;;;23.42;59.06;100084.41;6282138;20;3580464;-52
2022/05/07 10:25:08;;;;;;;;;21.00;20.00;;;;;23.60;55.98;100083.44;6283658;20;3571066;-54
2022/05/07 10:27:43;;;;;;;;;21.00;21.00;;;;;23.74;56.32;100082.78;6281636;20;3559766;-57
2022/05/07 10:30:15;;;;;;;;;21.33;21.33;;;;;23.71;58.22;100088.59;6279022;20;2850244;-55
2022/05/07 10:32:58;;;;;;;;;19.00;17.33;;;;;23.29;58.31;100083.19;6317496;20;3598152;-57
2022/05/07 10:35:58;;;;;;;;;21.00;19.00;;;;;22.87;58.32;100075.81;6286571;20;2650333;-56
2022/05/07 10:38:33;;;;;;;;;24.33;22.33;;;;;22.84;58.76;100071.53;6314523;20;3574209;-55
2022/05/07 10:41:28;;;;;;;;;25.00;24.33;;;;;22.86;57.86;100074.13;6310571;20;3590872;-55
2022/05/07 10:43:56;;;;;;;;;22.67;22.00;;;;;23.67;56.97;100074.38;6317157;20;3582568;-54
2022/05/07 10:46:25;;;;;;;;;20.67;19.00;;;;;22.91;57.51;100071.75;6282816;20;3558551;-56
2022/05/07 10:48:58;;;;;;;;;23.33;22.00;;;;;22.94;58.64;100075.00;6280303;20;3580452;-53
2022/05/07 10:51:29;;;;;;;;;19.00;19.00;;;;;22.45;58.65;100072.00;6283572;20;3576478;-54
2022/05/07 10:54:03;;;;;;;;;23.33;19.00;;;;;22.76;58.68;100072.34;6280891;20;3571261;-55
2022/05/07 10:56:34;;;;;;;;;25.33;24.33;;;;;23.03;57.67;100062.22;6281655;20;3595138;-56
2022/05/07 10:59:03;;;;;;;;;20.33;20.33;;;;;23.95;55.60;100075.94;6284675;20;3575218;-54
2022/05/07 11:01:34;;;;;;;;;28.00;21.00;;;;;23.34;56.79;100070.69;6283278;20;3604425;-58
2022/05/07 11:04:13;;;;;;;;;20.67;19.67;;;;;24.07;55.44;100071.84;6315523;20;3571144;-55
2022/05/07 11:06:47;;;;;;;;;25.00;23.00;;;;;24.01;55.08;100064.28;6284178;20;3580928;-53
2022/05/07 11:09:23;;;;;;;;;20.50;19.00;;;;;24.84;54.10;100065.88;6283081;20;3447196;-56
2022/05/07 11:11:57;;;;;;;;;19.33;18.33;;;;;24.11;53.60;100059.47;6310007;20;3557625;-53
2022/05/07 11:14:32;;;;;;;;;16.67;16.67;;;;;24.47;53.32;100062.72;6279331;20;3554985;-56
2022/05/07 11:17:04;;;;;;;;;19.00;18.00;;;;;23.53;54.68;100049.50;6282646;20;3568971;-58
2022/05/07 11:19:36;;;;;;;;;19.00;19.00;;;;;23.32;56.20;100050.81;6283122;20;3579388;-58
2022/05/07 11:22:10;;;;;;;;;19.00;18.00;;;;;23.39;55.26;100054.63;6279832;20;3558580;-58
2022/05/07 11:24:39;;;;;;;;;20.67;17.00;;;;;22.84;57.38;100044.16;6282381;20;3563808;-58
2022/05/07 11:27:11;;;;;;;;;21.33;20.33;;;;;22.49;57.24;100043.31;6279702;20;3580462;-58
2022/05/07 11:29:41;;;;;;;;;25.00;22.00;;;;;22.69;56.98;100043.91;6284056;20;3574211;-58
2022/05/07 11:32:12;;;;;;;;;21.67;19.00;;;;;22.99;56.02;100037.06;6279923;20;3569113;-58
2022/05/07 11:34:43;;;;;;;;;17.00;15.00;;;;;22.97;56.95;100039.09;6278099;20;2817982;-58